sensor_id;sensor_type;location;lat;lon;timestamp;temperature;humidity
1686;DHT22;840;47.980;7.830;2022-10-17T00:00:46;17.40;99.90
1686;DHT22;840;47.980;7.830;2022-10-17T00:03:13;17.30;99.90
1686;DHT22;840;47.980;7.830;2022-10-17T00:05:42;17.30;99.90
1686;DHT22;840;47.980;7.830;2022-10-17T00:08:11;17.30;99.90
1686;DHT22;840;47.980;7.830;2022-10-17T00:10:38;17.30;99.90
1686;DHT22;840;47.980;7.830;2022-10-17T00:13:06;17.40;99.90
1686;DHT22;840;47.980;7.830;2022-10-17T00:15:33;17.40;99.90
1686;DHT22;840;47.980;7.830;2022-10-17T00:18:00;17.40;99.90
1686;DHT22;840;47.980;7.830;2022-10-17T00:20:27;17.40;99.90
1686;DHT22;840;47.980;7.830;2022-10-17T00:22:56;17.40;99.90
1686;DHT22;840;47.980;7.830;2022-10-17T00:25:23;17.40;99.90
1686;DHT22;840;47.980;7.830;2022-10-17T00:27:49;17.40;99.90
1686;DHT22;840;47.980;7.830;2022-10-17T00:30:16;17.40;99.90
1686;DHT22;840;47.980;7.830;2022-10-17T00:32:43;17.40;99.90
1686;DHT22;840;47.980;7.830;2022-10-17T00:35:10;17.30;99.90
1686;DHT22;840;47.980;7.830;2022-10-17T00:37:37;17.30;99.90
1686;DHT22;840;47.980;7.830;2022-10-17T00:40:07;17.30;99.90
1686;DHT22;840;47.980;7.830;2022-10-17T00:42:34;17.30;99.90
1686;DHT22;840;47.980;7.830;2022-10-17T00:45:06;17.30;99.90
1686;DHT22;840;47.980;7.830;2022-10-17T00:47:34;17.30;99.90
1686;DHT22;840;47.980;7.830;2022-10-17T00:50:02;17.30;99.90
1686;DHT22;840;47.980;7.830;2022-10-17T00:52:30;17.30;99.90
1686;DHT22;840;47.980;7.830;2022-10-17T00:54:59;17.30;99.90
1686;DHT22;840;47.980;7.830;2022-10-17T00:57:30;17.30;99.90
1686;DHT22;840;47.980;7.830;2022-10-17T00:59:58;17.20;99.90
1686;DHT22;840;47.980;7.830;2022-10-17T01:02:26;17.20;99.90
1686;DHT22;840;47.980;7.830;2022-10-17T01:04:53;17.20;99.90
1686;DHT22;840;47.980;7.830;2022-10-17T01:07:24;17.30;99.90
1686;DHT22;840;47.980;7.830;2022-10-17T01:09:51;17.20;99.90
1686;DHT22;840;47.980;7.830;2022-10-17T01:12:20;17.20;99.90
1686;DHT22;840;47.980;7.830;2022-10-17T01:15:00;17.20;99.90
1686;DHT22;840;47.980;7.830;2022-10-17T01:17:34;17.20;99.90
1686;DHT22;840;47.980;7.830;2022-10-17T01:20:32;17.10;99.90
1686;DHT22;840;47.980;7.830;2022-10-17T01:23:17;17.10;99.90
1686;DHT22;840;47.980;7.830;2022-10-17T01:25:54;17.00;99.90
1686;DHT22;840;47.980;7.830;2022-10-17T01:28:38;16.90;99.90
1686;DHT22;840;47.980;7.830;2022-10-17T01:31:11;16.80;99.90
1686;DHT22;840;47.980;7.830;2022-10-17T01:33:52;16.70;99.90
1686;DHT22;840;47.980;7.830;2022-10-17T01:36:35;16.70;99.90
1686;DHT22;840;47.980;7.830;2022-10-17T01:39:10;16.60;99.90
1686;DHT22;840;47.980;7.830;2022-10-17T01:41:41;16.50;99.90
1686;DHT22;840;47.980;7.830;2022-10-17T01:44:12;16.50;99.90
1686;DHT22;840;47.980;7.830;2022-10-17T01:46:42;16.50;99.90
1686;DHT22;840;47.980;7.830;2022-10-17T01:49:13;16.40;99.90
1686;DHT22;840;47.980;7.830;2022-10-17T01:51:45;16.50;99.90
1686;DHT22;840;47.980;7.830;2022-10-17T01:54:15;16.50;99.90
1686;DHT22;840;47.980;7.830;2022-10-17T01:56:45;16.50;99.90
1686;DHT22;840;47.980;7.830;2022-10-17T01:59:16;16.50;99.90
1686;DHT22;840;47.980;7.830;2022-10-17T02:01:48;16.60;99.90
1686;DHT22;840;47.980;7.830;2022-10-17T02:04:16;16.60;99.90
1686;DHT22;840;47.980;7.830;2022-10-17T02:06:43;16.60;99.90
1686;DHT22;840;47.980;7.830;2022-10-17T02:09:19;16.60;99.90
1686;DHT22;840;47.980;7.830;2022-10-17T02:11:59;16.70;99.90
1686;DHT22;840;47.980;7.830;2022-10-17T02:14:37;16.70;99.90
1686;DHT22;840;47.980;7.830;2022-10-17T02:17:14;16.70;99.90
1686;DHT22;840;47.980;7.830;2022-10-17T02:19:54;16.70;99.90
1686;DHT22;840;47.980;7.830;2022-10-17T02:22:32;16.60;99.90
1686;DHT22;840;47.980;7.830;2022-10-17T02:25:07;16.70;99.90
1686;DHT22;840;47.980;7.830;2022-10-17T02:27:42;16.70;99.90
1686;DHT22;840;47.980;7.830;2022-10-17T02:30:12;16.70;99.90
1686;DHT22;840;47.980;7.830;2022-10-17T02:32:45;16.70;99.90
1686;DHT22;840;47.980;7.830;2022-10-17T02:35:17;16.70;99.90
1686;DHT22;840;47.980;7.830;2022-10-17T02:37:46;16.70;99.90
1686;DHT22;840;47.980;7.830;2022-10-17T02:40:15;16.70;99.90
1686;DHT22;840;47.980;7.830;2022-10-17T02:42:43;16.70;99.90
1686;DHT22;840;47.980;7.830;2022-10-17T02:45:12;16.60;99.90
1686;DHT22;840;47.980;7.830;2022-10-17T02:47:48;16.70;99.90
1686;DHT22;840;47.980;7.830;2022-10-17T02:50:17;16.60;99.90
1686;DHT22;840;47.980;7.830;2022-10-17T02:52:51;16.70;99.90
1686;DHT22;840;47.980;7.830;2022-10-17T02:55:23;16.70;99.90
1686;DHT22;840;47.980;7.830;2022-10-17T02:57:53;16.60;99.90
1686;DHT22;840;47.980;7.830;2022-10-17T03:00:22;16.60;99.90
1686;DHT22;840;47.980;7.830;2022-10-17T03:02:53;16.50;99.90
1686;DHT22;840;47.980;7.830;2022-10-17T03:05:21;16.50;99.90
1686;DHT22;840;47.980;7.830;2022-10-17T03:07:48;16.50;99.90
1686;DHT22;840;47.980;7.830;2022-10-17T03:10:16;16.40;99.90
1686;DHT22;840;47.980;7.830;2022-10-17T03:12:43;16.40;99.90
1686;DHT22;840;47.980;7.830;2022-10-17T03:15:11;16.30;99.90
1686;DHT22;840;47.980;7.830;2022-10-17T03:17:38;16.30;99.90
1686;DHT22;840;47.980;7.830;2022-10-17T03:20:06;16.20;99.90
1686;DHT22;840;47.980;7.830;2022-10-17T03:22:33;16.20;99.90
1686;DHT22;840;47.980;7.830;2022-10-17T03:25:00;16.20;99.90
1686;DHT22;840;47.980;7.830;2022-10-17T03:27:27;16.10;99.90
1686;DHT22;840;47.980;7.830;2022-10-17T03:29:53;16.10;99.90
1686;DHT22;840;47.980;7.830;2022-10-17T03:32:20;16.00;99.90
1686;DHT22;840;47.980;7.830;2022-10-17T03:34:47;16.00;99.90
1686;DHT22;840;47.980;7.830;2022-10-17T03:37:15;16.00;99.90
1686;DHT22;840;47.980;7.830;2022-10-17T03:39:42;15.90;99.90
1686;DHT22;840;47.980;7.830;2022-10-17T03:42:09;15.90;99.90
1686;DHT22;840;47.980;7.830;2022-10-17T03:44:36;15.80;99.90
1686;DHT22;840;47.980;7.830;2022-10-17T03:47:03;15.80;99.90
1686;DHT22;840;47.980;7.830;2022-10-17T03:49:29;15.80;99.90
1686;DHT22;840;47.980;7.830;2022-10-17T03:51:56;15.70;99.90
1686;DHT22;840;47.980;7.830;2022-10-17T03:54:24;15.70;99.90
1686;DHT22;840;47.980;7.830;2022-10-17T03:56:51;15.70;99.90
1686;DHT22;840;47.980;7.830;2022-10-17T03:59:18;15.70;99.90
1686;DHT22;840;47.980;7.830;2022-10-17T04:01:45;15.70;99.90
1686;DHT22;840;47.980;7.830;2022-10-17T04:04:12;15.60;99.90
1686;DHT22;840;47.980;7.830;2022-10-17T04:06:39;15.60;99.90
1686;DHT22;840;47.980;7.830;2022-10-17T04:09:06;15.60;99.90
1686;DHT22;840;47.980;7.830;2022-10-17T04:11:34;15.60;99.90
1686;DHT22;840;47.980;7.830;2022-10-17T04:14:01;15.50;99.90
1686;DHT22;840;47.980;7.830;2022-10-17T04:16:28;15.50;99.90
1686;DHT22;840;47.980;7.830;2022-10-17T04:18:57;15.40;99.90
1686;DHT22;840;47.980;7.830;2022-10-17T04:21:26;15.40;99.90
1686;DHT22;840;47.980;7.830;2022-10-17T04:23:53;15.40;99.90
1686;DHT22;840;47.980;7.830;2022-10-17T04:26:20;15.30;99.90
1686;DHT22;840;47.980;7.830;2022-10-17T04:28:48;15.30;99.90
1686;DHT22;840;47.980;7.830;2022-10-17T04:31:15;15.30;99.90
1686;DHT22;840;47.980;7.830;2022-10-17T04:33:45;15.30;99.90
1686;DHT22;840;47.980;7.830;2022-10-17T04:36:13;15.30;99.90
1686;DHT22;840;47.980;7.830;2022-10-17T04:38:40;15.20;99.90
1686;DHT22;840;47.980;7.830;2022-10-17T04:41:10;15.20;99.90
1686;DHT22;840;47.980;7.830;2022-10-17T04:43:38;15.20;99.90
1686;DHT22;840;47.980;7.830;2022-10-17T04:46:07;15.20;99.90
1686;DHT22;840;47.980;7.830;2022-10-17T04:48:35;15.20;99.90
1686;DHT22;840;47.980;7.830;2022-10-17T04:51:04;15.10;99.90
1686;DHT22;840;47.980;7.830;2022-10-17T04:53:33;15.10;99.90
1686;DHT22;840;47.980;7.830;2022-10-17T04:56:01;15.10;99.90
1686;DHT22;840;47.980;7.830;2022-10-17T04:58:32;15.00;99.90
1686;DHT22;840;47.980;7.830;2022-10-17T05:01:03;15.00;99.90
1686;DHT22;840;47.980;7.830;2022-10-17T05:03:32;15.00;99.90
1686;DHT22;840;47.980;7.830;2022-10-17T05:06:02;15.00;99.90
1686;DHT22;840;47.980;7.830;2022-10-17T05:08:29;14.90;99.90
1686;DHT22;840;47.980;7.830;2022-10-17T05:10:56;14.90;99.90
1686;DHT22;840;47.980;7.830;2022-10-17T05:13:23;14.90;99.90
1686;DHT22;840;47.980;7.830;2022-10-17T05:15:49;14.90;99.90
1686;DHT22;840;47.980;7.830;2022-10-17T05:18:16;14.90;99.90
1686;DHT22;840;47.980;7.830;2022-10-17T05:20:45;14.90;99.90
1686;DHT22;840;47.980;7.830;2022-10-17T05:23:12;14.90;99.90
1686;DHT22;840;47.980;7.830;2022-10-17T05:25:39;14.80;99.90
1686;DHT22;840;47.980;7.830;2022-10-17T05:28:05;14.80;99.90
1686;DHT22;840;47.980;7.830;2022-10-17T05:30:33;14.90;99.90
1686;DHT22;840;47.980;7.830;2022-10-17T05:33:00;14.80;99.90
1686;DHT22;840;47.980;7.830;2022-10-17T05:35:27;14.80;99.90
1686;DHT22;840;47.980;7.830;2022-10-17T05:37:56;14.80;99.90
1686;DHT22;840;47.980;7.830;2022-10-17T05:40:23;14.70;99.90
1686;DHT22;840;47.980;7.830;2022-10-17T05:42:50;14.80;99.90
1686;DHT22;840;47.980;7.830;2022-10-17T05:45:17;14.70;99.90
1686;DHT22;840;47.980;7.830;2022-10-17T05:47:44;14.70;99.90
1686;DHT22;840;47.980;7.830;2022-10-17T05:50:11;14.70;99.90
1686;DHT22;840;47.980;7.830;2022-10-17T05:52:38;14.70;99.90
1686;DHT22;840;47.980;7.830;2022-10-17T05:55:07;14.70;99.90
1686;DHT22;840;47.980;7.830;2022-10-17T05:57:34;14.70;99.90
1686;DHT22;840;47.980;7.830;2022-10-17T06:00:01;14.70;99.90
1686;DHT22;840;47.980;7.830;2022-10-17T06:02:28;14.70;99.90
1686;DHT22;840;47.980;7.830;2022-10-17T06:04:54;14.70;99.90
1686;DHT22;840;47.980;7.830;2022-10-17T06:07:21;14.80;99.90
1686;DHT22;840;47.980;7.830;2022-10-17T06:09:48;14.80;99.90
1686;DHT22;840;47.980;7.830;2022-10-17T06:12:16;14.80;99.90
1686;DHT22;840;47.980;7.830;2022-10-17T06:14:43;14.80;99.90
1686;DHT22;840;47.980;7.830;2022-10-17T06:17:09;14.70;99.90
1686;DHT22;840;47.980;7.830;2022-10-17T06:19:36;14.70;99.90
1686;DHT22;840;47.980;7.830;2022-10-17T06:22:05;14.70;99.90
1686;DHT22;840;47.980;7.830;2022-10-17T06:24:32;14.80;99.90
1686;DHT22;840;47.980;7.830;2022-10-17T06:26:59;14.80;99.90
1686;DHT22;840;47.980;7.830;2022-10-17T06:29:27;14.80;99.90
1686;DHT22;840;47.980;7.830;2022-10-17T06:31:54;14.80;99.90
1686;DHT22;840;47.980;7.830;2022-10-17T06:34:21;14.80;99.90
1686;DHT22;840;47.980;7.830;2022-10-17T06:36:47;14.90;99.90
1686;DHT22;840;47.980;7.830;2022-10-17T06:39:14;14.90;99.90
1686;DHT22;840;47.980;7.830;2022-10-17T06:41:41;14.90;99.90
1686;DHT22;840;47.980;7.830;2022-10-17T06:44:09;15.00;99.90
1686;DHT22;840;47.980;7.830;2022-10-17T06:46:38;15.00;99.90
1686;DHT22;840;47.980;7.830;2022-10-17T06:49:05;15.00;99.90
1686;DHT22;840;47.980;7.830;2022-10-17T06:51:35;15.10;99.90
1686;DHT22;840;47.980;7.830;2022-10-17T06:54:02;15.10;99.90
1686;DHT22;840;47.980;7.830;2022-10-17T06:56:29;15.10;99.90
1686;DHT22;840;47.980;7.830;2022-10-17T06:58:55;15.20;99.90
1686;DHT22;840;47.980;7.830;2022-10-17T07:01:22;15.20;99.90
1686;DHT22;840;47.980;7.830;2022-10-17T07:03:50;15.30;99.90
1686;DHT22;840;47.980;7.830;2022-10-17T07:06:17;15.30;99.90
1686;DHT22;840;47.980;7.830;2022-10-17T07:08:44;15.40;99.90
1686;DHT22;840;47.980;7.830;2022-10-17T07:11:14;15.40;99.90
1686;DHT22;840;47.980;7.830;2022-10-17T07:13:41;15.50;99.90
1686;DHT22;840;47.980;7.830;2022-10-17T07:16:09;15.50;99.90
1686;DHT22;840;47.980;7.830;2022-10-17T07:18:36;15.50;99.90
1686;DHT22;840;47.980;7.830;2022-10-17T07:21:05;15.60;99.90
1686;DHT22;840;47.980;7.830;2022-10-17T07:23:33;15.60;99.90
1686;DHT22;840;47.980;7.830;2022-10-17T07:26:02;15.70;99.90
1686;DHT22;840;47.980;7.830;2022-10-17T07:28:32;15.80;99.90
1686;DHT22;840;47.980;7.830;2022-10-17T07:31:03;15.90;99.90
1686;DHT22;840;47.980;7.830;2022-10-17T07:33:30;16.00;99.90
1686;DHT22;840;47.980;7.830;2022-10-17T07:35:58;16.10;99.90
1686;DHT22;840;47.980;7.830;2022-10-17T07:38:26;16.20;99.90
1686;DHT22;840;47.980;7.830;2022-10-17T07:40:54;16.30;99.90
1686;DHT22;840;47.980;7.830;2022-10-17T07:43:21;16.40;99.90
1686;DHT22;840;47.980;7.830;2022-10-17T07:45:48;16.60;99.90
1686;DHT22;840;47.980;7.830;2022-10-17T07:48:15;16.70;99.90
1686;DHT22;840;47.980;7.830;2022-10-17T07:50:42;16.80;99.90
1686;DHT22;840;47.980;7.830;2022-10-17T07:53:09;17.00;99.90
1686;DHT22;840;47.980;7.830;2022-10-17T07:55:37;17.10;99.90
1686;DHT22;840;47.980;7.830;2022-10-17T07:58:04;17.30;99.90
1686;DHT22;840;47.980;7.830;2022-10-17T08:00:31;17.40;99.90
1686;DHT22;840;47.980;7.830;2022-10-17T08:02:58;17.50;99.90
1686;DHT22;840;47.980;7.830;2022-10-17T08:05:25;17.50;99.90
1686;DHT22;840;47.980;7.830;2022-10-17T08:07:52;17.60;99.90
1686;DHT22;840;47.980;7.830;2022-10-17T08:10:18;17.70;99.90
1686;DHT22;840;47.980;7.830;2022-10-17T08:12:47;17.70;99.90
1686;DHT22;840;47.980;7.830;2022-10-17T08:15:13;17.70;99.90
1686;DHT22;840;47.980;7.830;2022-10-17T08:17:40;17.70;99.90
1686;DHT22;840;47.980;7.830;2022-10-17T08:20:08;17.70;99.90
1686;DHT22;840;47.980;7.830;2022-10-17T08:22:35;17.80;99.90
1686;DHT22;840;47.980;7.830;2022-10-17T08:25:02;17.80;99.90
1686;DHT22;840;47.980;7.830;2022-10-17T08:27:29;17.80;99.90
1686;DHT22;840;47.980;7.830;2022-10-17T08:29:59;17.80;99.90
1686;DHT22;840;47.980;7.830;2022-10-17T08:32:27;17.80;99.90
1686;DHT22;840;47.980;7.830;2022-10-17T08:34:55;17.80;99.90
1686;DHT22;840;47.980;7.830;2022-10-17T08:37:22;17.90;99.90
1686;DHT22;840;47.980;7.830;2022-10-17T08:39:49;17.90;99.90
1686;DHT22;840;47.980;7.830;2022-10-17T08:42:33;17.90;99.90
1686;DHT22;840;47.980;7.830;2022-10-17T08:45:14;17.90;99.90
1686;DHT22;840;47.980;7.830;2022-10-17T08:47:44;18.00;99.90
1686;DHT22;840;47.980;7.830;2022-10-17T08:50:15;18.00;99.90
1686;DHT22;840;47.980;7.830;2022-10-17T08:52:47;18.00;99.90
1686;DHT22;840;47.980;7.830;2022-10-17T08:55:16;18.00;99.90
1686;DHT22;840;47.980;7.830;2022-10-17T08:57:43;18.00;99.90
1686;DHT22;840;47.980;7.830;2022-10-17T09:00:16;18.10;99.90
1686;DHT22;840;47.980;7.830;2022-10-17T09:02:53;18.10;99.90
1686;DHT22;840;47.980;7.830;2022-10-17T09:05:29;18.10;99.90
1686;DHT22;840;47.980;7.830;2022-10-17T09:08:04;18.20;99.90
1686;DHT22;840;47.980;7.830;2022-10-17T09:10:42;18.20;99.90
1686;DHT22;840;47.980;7.830;2022-10-17T09:13:20;18.30;99.90
1686;DHT22;840;47.980;7.830;2022-10-17T09:16:06;18.30;99.90
1686;DHT22;840;47.980;7.830;2022-10-17T09:18:37;18.40;99.90
1686;DHT22;840;47.980;7.830;2022-10-17T09:21:15;18.50;99.90
1686;DHT22;840;47.980;7.830;2022-10-17T09:23:45;18.50;99.90
1686;DHT22;840;47.980;7.830;2022-10-17T09:26:14;18.60;99.90
1686;DHT22;840;47.980;7.830;2022-10-17T09:28:49;18.70;99.90
1686;DHT22;840;47.980;7.830;2022-10-17T09:31:22;18.70;99.90
1686;DHT22;840;47.980;7.830;2022-10-17T09:33:50;18.80;99.90
1686;DHT22;840;47.980;7.830;2022-10-17T09:36:19;18.90;99.90
1686;DHT22;840;47.980;7.830;2022-10-17T09:38:48;18.90;99.90
1686;DHT22;840;47.980;7.830;2022-10-17T09:41:19;19.10;99.90
1686;DHT22;840;47.980;7.830;2022-10-17T09:43:46;19.10;99.90
1686;DHT22;840;47.980;7.830;2022-10-17T09:46:17;19.20;99.90
1686;DHT22;840;47.980;7.830;2022-10-17T09:48:52;19.30;99.90
1686;DHT22;840;47.980;7.830;2022-10-17T09:51:19;19.30;99.90
1686;DHT22;840;47.980;7.830;2022-10-17T09:53:49;19.40;99.90
1686;DHT22;840;47.980;7.830;2022-10-17T09:56:18;19.40;99.90
1686;DHT22;840;47.980;7.830;2022-10-17T09:58:47;19.40;99.90
1686;DHT22;840;47.980;7.830;2022-10-17T10:01:17;19.50;99.90
1686;DHT22;840;47.980;7.830;2022-10-17T10:04:10;19.60;99.90
1686;DHT22;840;47.980;7.830;2022-10-17T10:06:38;19.70;99.90
1686;DHT22;840;47.980;7.830;2022-10-17T10:09:06;19.70;99.90
1686;DHT22;840;47.980;7.830;2022-10-17T10:11:45;19.80;99.90
1686;DHT22;840;47.980;7.830;2022-10-17T10:14:19;19.80;99.90
1686;DHT22;840;47.980;7.830;2022-10-17T10:16:47;19.80;99.90
1686;DHT22;840;47.980;7.830;2022-10-17T10:19:25;19.90;99.90
1686;DHT22;840;47.980;7.830;2022-10-17T10:21:57;19.90;99.90
1686;DHT22;840;47.980;7.830;2022-10-17T10:24:25;20.00;99.90
1686;DHT22;840;47.980;7.830;2022-10-17T10:26:54;20.10;99.90
1686;DHT22;840;47.980;7.830;2022-10-17T10:29:25;20.20;99.90
1686;DHT22;840;47.980;7.830;2022-10-17T10:31:53;20.30;99.90
1686;DHT22;840;47.980;7.830;2022-10-17T10:34:23;20.40;99.90
1686;DHT22;840;47.980;7.830;2022-10-17T10:36:56;20.50;99.90
1686;DHT22;840;47.980;7.830;2022-10-17T10:39:38;20.60;99.90
1686;DHT22;840;47.980;7.830;2022-10-17T10:42:16;20.70;99.90
1686;DHT22;840;47.980;7.830;2022-10-17T10:44:44;20.80;99.90
1686;DHT22;840;47.980;7.830;2022-10-17T10:47:21;20.90;99.90
1686;DHT22;840;47.980;7.830;2022-10-17T10:49:52;20.90;99.90
1686;DHT22;840;47.980;7.830;2022-10-17T10:52:35;21.00;99.90
1686;DHT22;840;47.980;7.830;2022-10-17T10:55:15;21.10;99.90
1686;DHT22;840;47.980;7.830;2022-10-17T10:57:44;21.10;99.90
1686;DHT22;840;47.980;7.830;2022-10-17T11:00:15;21.30;99.90
1686;DHT22;840;47.980;7.830;2022-10-17T11:02:48;21.40;99.90
1686;DHT22;840;47.980;7.830;2022-10-17T11:05:26;21.40;99.90
1686;DHT22;840;47.980;7.830;2022-10-17T11:08:02;21.40;99.90
1686;DHT22;840;47.980;7.830;2022-10-17T11:10:34;21.50;99.90
1686;DHT22;840;47.980;7.830;2022-10-17T11:13:05;21.50;99.90
1686;DHT22;840;47.980;7.830;2022-10-17T11:15:41;21.60;99.90
1686;DHT22;840;47.980;7.830;2022-10-17T11:18:15;21.80;99.90
1686;DHT22;840;47.980;7.830;2022-10-17T11:20:53;21.90;99.90
1686;DHT22;840;47.980;7.830;2022-10-17T11:23:27;22.10;99.90
1686;DHT22;840;47.980;7.830;2022-10-17T11:25:58;22.20;99.90
1686;DHT22;840;47.980;7.830;2022-10-17T11:28:28;22.30;99.90
1686;DHT22;840;47.980;7.830;2022-10-17T11:30:58;22.40;99.90
1686;DHT22;840;47.980;7.830;2022-10-17T11:33:29;22.50;99.90
1686;DHT22;840;47.980;7.830;2022-10-17T11:36:03;22.60;99.90
1686;DHT22;840;47.980;7.830;2022-10-17T11:38:39;22.70;99.90
1686;DHT22;840;47.980;7.830;2022-10-17T11:41:11;22.70;99.90
1686;DHT22;840;47.980;7.830;2022-10-17T11:43:43;22.70;99.90
1686;DHT22;840;47.980;7.830;2022-10-17T11:46:14;22.70;99.90
1686;DHT22;840;47.980;7.830;2022-10-17T11:48:52;22.80;99.90
1686;DHT22;840;47.980;7.830;2022-10-17T11:51:22;22.80;99.90
1686;DHT22;840;47.980;7.830;2022-10-17T11:53:55;22.80;99.90
1686;DHT22;840;47.980;7.830;2022-10-17T11:56:27;22.90;99.90
1686;DHT22;840;47.980;7.830;2022-10-17T11:59:18;22.90;99.90
1686;DHT22;840;47.980;7.830;2022-10-17T12:01:52;23.00;99.90
1686;DHT22;840;47.980;7.830;2022-10-17T12:04:28;23.10;99.90
1686;DHT22;840;47.980;7.830;2022-10-17T12:07:12;23.10;99.90
1686;DHT22;840;47.980;7.830;2022-10-17T12:09:44;23.20;99.90
1686;DHT22;840;47.980;7.830;2022-10-17T12:12:24;23.20;99.90
1686;DHT22;840;47.980;7.830;2022-10-17T12:14:51;23.30;99.90
1686;DHT22;840;47.980;7.830;2022-10-17T12:17:37;23.30;99.90
1686;DHT22;840;47.980;7.830;2022-10-17T12:20:35;23.40;99.90
1686;DHT22;840;47.980;7.830;2022-10-17T12:23:21;23.40;99.90
1686;DHT22;840;47.980;7.830;2022-10-17T12:25:51;23.50;99.90
1686;DHT22;840;47.980;7.830;2022-10-17T12:28:25;23.50;99.90
1686;DHT22;840;47.980;7.830;2022-10-17T12:30:55;23.60;99.90
1686;DHT22;840;47.980;7.830;2022-10-17T12:36:44;23.60;99.90
1686;DHT22;840;47.980;7.830;2022-10-17T12:42:50;23.70;99.90
1686;DHT22;840;47.980;7.830;2022-10-17T12:45:47;23.80;99.90
1686;DHT22;840;47.980;7.830;2022-10-17T12:51:20;23.90;99.90
1686;DHT22;840;47.980;7.830;2022-10-17T12:53:54;23.90;99.90
1686;DHT22;840;47.980;7.830;2022-10-17T12:56:30;24.00;99.90
1686;DHT22;840;47.980;7.830;2022-10-17T12:59:06;24.10;99.90
1686;DHT22;840;47.980;7.830;2022-10-17T13:01:36;24.10;99.90
1686;DHT22;840;47.980;7.830;2022-10-17T13:04:04;24.20;99.90
1686;DHT22;840;47.980;7.830;2022-10-17T13:06:32;24.30;99.90
1686;DHT22;840;47.980;7.830;2022-10-17T13:09:04;24.40;99.90
1686;DHT22;840;47.980;7.830;2022-10-17T13:11:34;24.50;99.90
1686;DHT22;840;47.980;7.830;2022-10-17T13:14:10;24.60;99.90
1686;DHT22;840;47.980;7.830;2022-10-17T13:16:39;24.70;99.90
1686;DHT22;840;47.980;7.830;2022-10-17T13:19:12;24.80;99.90
1686;DHT22;840;47.980;7.830;2022-10-17T13:21:49;24.90;99.90
1686;DHT22;840;47.980;7.830;2022-10-17T13:24:20;25.00;99.90
1686;DHT22;840;47.980;7.830;2022-10-17T13:26:47;25.10;99.90
1686;DHT22;840;47.980;7.830;2022-10-17T13:29:15;25.20;99.90
1686;DHT22;840;47.980;7.830;2022-10-17T13:31:51;25.30;99.90
1686;DHT22;840;47.980;7.830;2022-10-17T13:34:20;25.40;99.90
1686;DHT22;840;47.980;7.830;2022-10-17T13:36:49;25.50;99.90
1686;DHT22;840;47.980;7.830;2022-10-17T13:39:19;25.60;99.90
1686;DHT22;840;47.980;7.830;2022-10-17T13:41:47;25.60;99.90
1686;DHT22;840;47.980;7.830;2022-10-17T13:44:18;25.80;99.90
1686;DHT22;840;47.980;7.830;2022-10-17T13:46:46;25.90;99.90
1686;DHT22;840;47.980;7.830;2022-10-17T13:49:19;26.00;99.90
1686;DHT22;840;47.980;7.830;2022-10-17T13:51:49;26.10;99.90
1686;DHT22;840;47.980;7.830;2022-10-17T13:54:18;26.20;99.90
1686;DHT22;840;47.980;7.830;2022-10-17T13:56:45;26.30;99.90
1686;DHT22;840;47.980;7.830;2022-10-17T13:59:20;26.30;99.90
1686;DHT22;840;47.980;7.830;2022-10-17T14:01:48;26.30;99.90
1686;DHT22;840;47.980;7.830;2022-10-17T14:04:16;26.40;99.90
1686;DHT22;840;47.980;7.830;2022-10-17T14:06:44;26.50;99.90
1686;DHT22;840;47.980;7.830;2022-10-17T14:09:18;26.50;99.90
1686;DHT22;840;47.980;7.830;2022-10-17T14:11:56;26.60;99.90
1686;DHT22;840;47.980;7.830;2022-10-17T14:14:25;26.70;99.90
1686;DHT22;840;47.980;7.830;2022-10-17T14:16:54;26.70;99.90
1686;DHT22;840;47.980;7.830;2022-10-17T14:19:25;26.70;99.90
1686;DHT22;840;47.980;7.830;2022-10-17T14:21:54;26.70;99.90
1686;DHT22;840;47.980;7.830;2022-10-17T14:24:29;26.80;99.90
1686;DHT22;840;47.980;7.830;2022-10-17T14:26:58;26.80;99.80
1686;DHT22;840;47.980;7.830;2022-10-17T14:29:28;26.80;99.90
1686;DHT22;840;47.980;7.830;2022-10-17T14:31:58;26.90;99.90
1686;DHT22;840;47.980;7.830;2022-10-17T14:34:30;26.90;99.90
1686;DHT22;840;47.980;7.830;2022-10-17T14:36:58;27.00;99.80
1686;DHT22;840;47.980;7.830;2022-10-17T14:39:26;27.00;99.80
1686;DHT22;840;47.980;7.830;2022-10-17T14:41:53;27.10;99.50
1686;DHT22;840;47.980;7.830;2022-10-17T14:44:24;27.00;98.90
1686;DHT22;840;47.980;7.830;2022-10-17T14:46:58;27.00;98.70
1686;DHT22;840;47.980;7.830;2022-10-17T14:49:32;27.00;99.90
1686;DHT22;840;47.980;7.830;2022-10-17T14:54:51;27.00;98.70
1686;DHT22;840;47.980;7.830;2022-10-17T14:57:21;27.00;98.70
1686;DHT22;840;47.980;7.830;2022-10-17T14:59:48;27.00;98.80
1686;DHT22;840;47.980;7.830;2022-10-17T15:02:16;27.00;99.90
1686;DHT22;840;47.980;7.830;2022-10-17T15:04:43;27.00;99.60
1686;DHT22;840;47.980;7.830;2022-10-17T15:07:13;27.00;99.30
1686;DHT22;840;47.980;7.830;2022-10-17T15:09:40;26.90;99.00
1686;DHT22;840;47.980;7.830;2022-10-17T15:12:13;26.90;99.30
1686;DHT22;840;47.980;7.830;2022-10-17T15:14:40;26.90;99.30
1686;DHT22;840;47.980;7.830;2022-10-17T15:17:12;26.90;98.90
1686;DHT22;840;47.980;7.830;2022-10-17T15:19:41;26.80;99.00
1686;DHT22;840;47.980;7.830;2022-10-17T15:22:07;26.80;99.20
1686;DHT22;840;47.980;7.830;2022-10-17T15:24:34;26.60;99.50
1686;DHT22;840;47.980;7.830;2022-10-17T15:27:02;26.50;99.40
1686;DHT22;840;47.980;7.830;2022-10-17T15:29:29;26.30;99.90
1686;DHT22;840;47.980;7.830;2022-10-17T15:31:55;26.10;99.90
1686;DHT22;840;47.980;7.830;2022-10-17T15:34:22;25.90;99.90
1686;DHT22;840;47.980;7.830;2022-10-17T15:36:51;25.70;99.90
1686;DHT22;840;47.980;7.830;2022-10-17T15:39:18;25.50;99.90
1686;DHT22;840;47.980;7.830;2022-10-17T15:41:45;25.40;99.90
1686;DHT22;840;47.980;7.830;2022-10-17T15:44:13;25.20;99.90
1686;DHT22;840;47.980;7.830;2022-10-17T15:46:41;25.10;99.90
1686;DHT22;840;47.980;7.830;2022-10-17T15:49:10;25.00;99.90
1686;DHT22;840;47.980;7.830;2022-10-17T15:51:38;24.90;99.90
1686;DHT22;840;47.980;7.830;2022-10-17T15:54:06;24.80;99.90
1686;DHT22;840;47.980;7.830;2022-10-17T15:56:34;24.60;99.90
1686;DHT22;840;47.980;7.830;2022-10-17T15:59:02;24.50;99.90
1686;DHT22;840;47.980;7.830;2022-10-17T16:01:30;24.30;99.90
1686;DHT22;840;47.980;7.830;2022-10-17T16:03:58;24.30;99.90
1686;DHT22;840;47.980;7.830;2022-10-17T16:06:25;24.20;99.90
1686;DHT22;840;47.980;7.830;2022-10-17T16:08:52;24.10;99.90
1686;DHT22;840;47.980;7.830;2022-10-17T16:11:28;23.90;99.90
1686;DHT22;840;47.980;7.830;2022-10-17T16:13:58;23.80;99.90
1686;DHT22;840;47.980;7.830;2022-10-17T16:16:25;23.70;99.90
1686;DHT22;840;47.980;7.830;2022-10-17T16:18:52;23.60;99.90
1686;DHT22;840;47.980;7.830;2022-10-17T16:21:23;23.50;99.90
1686;DHT22;840;47.980;7.830;2022-10-17T16:23:50;23.50;99.90
1686;DHT22;840;47.980;7.830;2022-10-17T16:26:18;23.40;99.90
1686;DHT22;840;47.980;7.830;2022-10-17T16:28:46;23.20;99.90
1686;DHT22;840;47.980;7.830;2022-10-17T16:31:19;23.20;99.90
1686;DHT22;840;47.980;7.830;2022-10-17T16:33:48;23.10;99.90
1686;DHT22;840;47.980;7.830;2022-10-17T16:36:16;23.00;99.90
1686;DHT22;840;47.980;7.830;2022-10-17T16:38:43;22.90;99.90
1686;DHT22;840;47.980;7.830;2022-10-17T16:41:18;22.80;99.90
1686;DHT22;840;47.980;7.830;2022-10-17T16:43:48;22.80;99.90
1686;DHT22;840;47.980;7.830;2022-10-17T16:46:16;22.70;99.90
1686;DHT22;840;47.980;7.830;2022-10-17T16:48:43;22.70;99.90